• Join FlightAware (Why Join?)
  • Login
  • US Flag 
12:14PM EDT


 

Airport Tracker/Info


-or-


 

Live Flight TrackerFlight Track Log ✈ N559LC ✈ 19-Oct-2013 ✈ KBOS - KDTW

Flight Track Log - Related Links

Times and Time Zones

All times are in EDT time to prevent confusion due to time zone crossing. See the N559LC flight status page for this flight to view local times or setup timezone preferences in your user account.

Time Position Orientation Groundspeed Altitude Reporting Facility
EDT Latitude Longitude Course Direction KTS MPH feet Rate Location/Type
12:36AM 42.3667 -71.0000 135° Southeast 167 192 800  Level KA90
12:37AM 42.3167 -70.9333 135° Southeast 240 276 4,000 3,180 Climbing KA90
12:38AM 42.3333 -70.8167 79° East 305 351 7,500 1,440 Climbing KA90
12:40AM 42.3436 -71.0505 334° Northwest  Level Estimated
12:47AM 42.3813 -72.0238 283° West  Level Estimated
12:48AM 42.3860 -72.1629 278° West  Level Estimated
12:49AM 42.3905 -72.3021 289° West  Level Estimated
12:50AM 42.3949 -72.4412 275° West  Level Estimated
12:51AM 42.4977 -72.4431 359° North  Level FlightAware Approximate
12:52AM 42.5006 -72.5826 324° Northwest  Level Estimated
12:53AM 42.5034 -72.7220 270° West  Level Estimated
12:54AM 42.5059 -72.8615 278° West  Level Estimated
12:55AM 42.6072 -72.8863 350° North  Level FlightAware Approximate
12:56AM 42.6082 -73.0261 277° West  Level Estimated
12:57AM 42.6954 -73.1004 328° Northwest  Level FlightAware Approximate
12:58AM 42.6950 -73.2404 276° West  Level Estimated
12:59AM 42.7566 -73.3525 307° West  Level FlightAware Approximate
01:00AM 42.8181 -73.4649 307° West  Level FlightAware Approximate
01:01AM 42.8794 -73.5775 307° West  Level FlightAware Approximate
01:02AM 42.8758 -73.7178 276° West  Level Estimated
01:03AM 42.8720 -73.8581 276° West  Level Estimated
01:03AM 42.8297 -73.8756 271° West 367 422 43,000  Level Cleveland Center
01:04AM 42.9105 -73.9883 292° West  Level FlightAware Approximate
01:04AM 42.8356 -74.0139 273° West 366 421 43,000  Level Cleveland Center
01:05AM 42.9488 -74.1187 292° West  Level FlightAware Approximate
01:05AM 42.8411 -74.1522 273° West 366 421 43,000  Level Cleveland Center
01:06AM 42.9432 -74.2591 270° West  Level Estimated
01:06AM 42.8456 -74.2933 273° West 371 427 43,000  Level Cleveland Center
01:07AM 42.8833 -74.3733 234° Southwest  Level FlightAware Approximate
01:07AM 42.8525 -74.4339 274° West 372 428 43,000  Level Cleveland Center
01:08AM 42.8783 -74.5135 273° West  Level Estimated
01:09AM 42.8799 -74.6539 271° West  Level FlightAware Approximate
01:09AM 42.8193 -74.5995 273° West  Level FlightAware Approximate
01:09AM 42.8622 -74.7142 273° West 370 426 43,000  Level Cleveland Center
01:10AM 42.8683 -74.8556 273° West 371 427 43,000  Level Cleveland Center
01:11AM 42.8717 -74.9989 272° West 375 432 43,000  Level Cleveland Center
01:12AM 42.8764 -75.1389 273° West 371 427 43,000  Level Cleveland Center
01:13AM 42.8808 -75.2839 272° West 379 436 43,000  Level Cleveland Center
01:14AM 42.8844 -75.4267 272° West 374 430 43,000  Level Cleveland Center
01:15AM 42.8894 -75.5689 273° West 374 430 43,000  Level Cleveland Center
01:16AM 42.8936 -75.7106 272° West 373 429 43,000  Level Cleveland Center
01:17AM 42.8925 -75.8519 269° West 372 428 43,000  Level Cleveland Center
01:18AM 42.8875 -75.9897 267° West 367 422 43,000  Level Cleveland Center
01:19AM 42.8822 -76.1289 267° West 367 422 43,000  Level Cleveland Center
01:20AM 42.8775 -76.2675 267° West 367 422 43,000  Level Cleveland Center
01:21AM 42.8739 -76.4086 268° West 369 425 43,000  Level Cleveland Center
01:22AM 42.8692 -76.5483 267° West 370 426 43,000  Level Cleveland Center
01:23AM 42.8644 -76.6875 267° West 370 426 43,000  Level Cleveland Center
01:24AM 42.8600 -76.8292 268° West 376 433 43,000  Level Cleveland Center
01:25AM 42.8544 -76.9703 267° West 375 432 43,000  Level Cleveland Center
01:26AM 42.8492 -77.1094 267° West 371 427 43,000  Level Cleveland Center
01:27AM 42.8439 -77.2483 267° West 371 427 43,000  Level Cleveland Center
01:28AM 42.8378 -77.3869 267° West 371 427 43,000  Level Cleveland Center
01:29AM 42.8319 -77.5253 267° West 371 427 43,000  Level Cleveland Center
01:30AM 42.8258 -77.6647 267° West 375 432 43,000  Level Cleveland Center
01:31AM 42.8194 -77.8044 266° West 377 434 43,000  Level Cleveland Center
01:32AM 42.8144 -77.9483 267° West 385 443 43,000  Level Cleveland Center
01:33AM 42.8072 -78.0908 266° West 381 438 43,000  Level Cleveland Center
01:34AM 42.8000 -78.2353 266° West 384 442 43,000  Level Cleveland Center
01:35AM 42.7928 -78.3814 266° West 389 448 43,000  Level Cleveland Center
01:36AM 42.7858 -78.5281 266° West 390 449 43,000  Level Cleveland Center
01:37AM 42.7778 -78.6750 266° West 389 448 43,000  Level Cleveland Center
01:38AM 42.7706 -78.8200 266° West 386 444 43,000  Level Cleveland Center
01:39AM 42.7625 -78.9658 266° West 387 445 43,000  Level Cleveland Center
01:40AM 42.7550 -79.1056 266° West 372 428 43,000  Level Cleveland Center
01:41AM 42.7469 -79.2497 266° West 378 435 43,000  Level Cleveland Center
01:42AM 42.7389 -79.3900 266° West 376 433 43,000  Level Cleveland Center
01:43AM 42.7303 -79.5350 265° West 384 442 43,000  Level Cleveland Center
01:44AM 42.7206 -79.6831 265° West 395 455 43,000  Level Cleveland Center
01:45AM 42.7108 -79.8336 265° West 400 460 43,000  Level Cleveland Center
01:46AM 42.6975 -80.0094 264° West 401 461 43,000  Level Cleveland Center
01:47AM 42.6881 -80.1353 264° West 399 459 43,000  Level Cleveland Center
01:48AM 42.6792 -80.2867 265° West 399 459 43,000 -600 Level Cleveland Center
01:49AM 42.6681 -80.4381 264° West 400 460 41,800 -1,680 Descending Cleveland Center
01:50AM 42.6511 -80.5872 261° West 396 456 39,700 -2,160 Descending Cleveland Center
01:51AM 42.6314 -80.7339 260° West 391 450 37,500 -2,340 Descending Cleveland Center
01:52AM 42.6089 -80.8797 258° West 390 449 35,100 -2,400 Descending Cleveland Center
01:53AM 42.5875 -81.0261 259° West 392 451 32,800 -2,340 Descending Cleveland Center
01:54AM 42.5656 -81.1672 258° West 384 442 30,500 -2,160 Descending Cleveland Center
01:55AM 42.5458 -81.3008 259° West 362 417 28,500 -2,040 Descending Cleveland Center
01:56AM 42.5261 -81.4289 258° West 348 400 26,500 -2,040 Descending Cleveland Center
01:57AM 42.5061 -81.5572 258° West 345 397 24,500 -2,040 Descending Cleveland Center
01:58AM 42.4875 -81.6769 258° West 327 376 22,400 -1,980 Descending Cleveland Center
01:59AM 42.4694 -81.7894 258° West 318 366 20,600 -1,860 Descending Cleveland Center
02:00AM 42.4494 -81.9131 258° West 320 368 18,700 -1,860 Descending Cleveland Center
02:01AM 42.4306 -82.0358 258° West 330 380 16,900 -1,800 Descending Cleveland Center
02:02AM 42.4119 -82.1483 257° West 330 380 15,100 -1,800 Descending Cleveland Center
02:03AM 42.3947 -82.2669 259° West 325 374 13,300 -1,800 Descending Cleveland Center
02:04AM 42.4028 -82.3719 276° West 311 358 12,000 -1,320 Descending Cleveland Center
02:04AM 42.4025 -82.3839 268° West 310 357 12,000  Level Cleveland Center
02:05AM 42.3939 -82.4414 259° West 315 362 12,000  Level Cleveland Center
02:05AM 42.3853 -82.4989 259° West 310 357 12,000 -780 Level Cleveland Center
02:06AM 42.3694 -82.6036 258° West 295 339 10,800 -1,440 Descending Cleveland Center
02:07AM 42.3650 -82.6411 261° West 258 297 10,200 -1,500 Descending Cleveland Center
02:07AM 42.3558 -82.6939 257° West 259 298 9,300 -1,620 Descending Cleveland Center
02:08AM 42.3522 -82.7325 263° West 247 284 8,600 -1,620 Descending Cleveland Center
02:08AM 42.3458 -82.7847 261° West 247 284 7,700 -1,620 Descending Cleveland Center
02:09AM 42.3433 -82.8247 265° West 246 283 7,000 -1,620 Descending Cleveland Center
02:09AM 42.3400 -82.8744 265° West 243 280 6,100 -1,620 Descending Cleveland Center
02:10AM 42.3392 -82.9117 268° West 234 269 5,400 -1,620 Descending Cleveland Center
02:10AM 42.3350 -82.9614 264° West 236 272 4,500 -1,380 Descending Cleveland Center
02:11AM 42.3328 -82.9981 265° West 226 260 4,000 -540 Descending Cleveland Center
02:11AM 42.3294 -83.0406 264° West 220 253 4,000  Level Cleveland Center
02:12AM 42.3294 -83.0711 270° West 168 193 4,000 -240 Level Cleveland Center
02:12AM 42.3317 -83.1025 275° West 176 203 3,800 -840 Descending Cleveland Center
02:13AM 42.3331 -83.1308 274° West 154 177 3,200 -1,320 Descending Cleveland Center
02:13AM 42.3308 -83.1600 264° West 160 184 2,500 -1,200 Descending Cleveland Center
02:14AM 42.3244 -83.1892 254° West 155 178 2,000 -540 Descending Cleveland Center
02:14AM 42.3147 -83.2128 241° Southwest 154 177 2,000  Level Cleveland Center
02:15AM 42.3044 -83.2342 237° Southwest 139 160 2,000  Level Cleveland Center
02:15AM 42.2928 -83.2561 234° Southwest 145 167 2,000  Level Cleveland Center
02:16AM 42.2819 -83.2792 238° Southwest 136 157 2,000 -240 Level Cleveland Center
02:17AM 42.2683 -83.2969 224° Southwest 142 163 1,800 -600 Descending Cleveland Center
02:17AM 42.2547 -83.3064 207° Southwest 124 143 1,500 -720 Descending Cleveland Center
02:18AM 42.2369 -83.3186 207° Southwest 131 151 1,100 -720 Descending Cleveland Center
02:18AM 42.2236 -83.3300 212° Southwest 137 158 800 -1,140 Descending Cleveland Center
02:20AM 42.2124 -83.3534 255° West  Level Estimated
02:27AM 42.2124 -83.3534 255° West  Level Estimated